sensor_id;sensor_type;location;lat;lon;timestamp;P1;durP1;ratioP1;P2;durP2;ratioP2
76063;SDS011;64762;52.006;8.424;2022-11-20T00:00:28;14.80;;;6.30;;
76063;SDS011;64762;52.006;8.424;2022-11-20T00:02:53;13.67;;;6.53;;
76063;SDS011;64762;52.006;8.424;2022-11-20T00:05:18;10.57;;;5.77;;
76063;SDS011;64762;52.006;8.424;2022-11-20T00:07:44;9.85;;;5.00;;
76063;SDS011;64762;52.006;8.424;2022-11-20T00:10:09;15.63;;;6.38;;
76063;SDS011;64762;52.006;8.424;2022-11-20T00:12:35;15.03;;;5.80;;
76063;SDS011;64762;52.006;8.424;2022-11-20T00:15:00;13.83;;;5.50;;
76063;SDS011;64762;52.006;8.424;2022-11-20T00:17:26;12.80;;;6.00;;
76063;SDS011;64762;52.006;8.424;2022-11-20T00:19:51;12.63;;;6.80;;
76063;SDS011;64762;52.006;8.424;2022-11-20T00:22:16;11.53;;;5.47;;
76063;SDS011;64762;52.006;8.424;2022-11-20T00:24:42;9.43;;;4.60;;
76063;SDS011;64762;52.006;8.424;2022-11-20T00:27:07;11.30;;;5.30;;
76063;SDS011;64762;52.006;8.424;2022-11-20T00:29:32;11.03;;;4.20;;
76063;SDS011;64762;52.006;8.424;2022-11-20T00:31:58;10.90;;;4.43;;
76063;SDS011;64762;52.006;8.424;2022-11-20T00:34:23;12.00;;;5.33;;
76063;SDS011;64762;52.006;8.424;2022-11-20T00:36:48;12.50;;;4.60;;
76063;SDS011;64762;52.006;8.424;2022-11-20T00:39:13;10.40;;;4.47;;
76063;SDS011;64762;52.006;8.424;2022-11-20T00:41:39;9.57;;;4.53;;
76063;SDS011;64762;52.006;8.424;2022-11-20T00:44:04;11.37;;;4.67;;
76063;SDS011;64762;52.006;8.424;2022-11-20T00:46:29;12.07;;;4.70;;
76063;SDS011;64762;52.006;8.424;2022-11-20T00:48:55;9.63;;;4.43;;
76063;SDS011;64762;52.006;8.424;2022-11-20T00:51:21;10.27;;;4.70;;
76063;SDS011;64762;52.006;8.424;2022-11-20T00:53:48;9.77;;;4.72;;
76063;SDS011;64762;52.006;8.424;2022-11-20T00:56:14;8.87;;;4.30;;
76063;SDS011;64762;52.006;8.424;2022-11-20T00:58:42;8.65;;;4.07;;
76063;SDS011;64762;52.006;8.424;2022-11-20T01:03:35;10.82;;;4.85;;
76063;SDS011;64762;52.006;8.424;2022-11-20T01:06:02;8.18;;;4.38;;
76063;SDS011;64762;52.006;8.424;2022-11-20T01:08:33;10.13;;;4.07;;
76063;SDS011;64762;52.006;8.424;2022-11-20T01:11:02;8.63;;;4.22;;
76063;SDS011;64762;52.006;8.424;2022-11-20T01:13:30;8.27;;;4.07;;
76063;SDS011;64762;52.006;8.424;2022-11-20T01:18:30;10.70;;;5.05;;
76063;SDS011;64762;52.006;8.424;2022-11-20T01:20:59;11.27;;;4.90;;
76063;SDS011;64762;52.006;8.424;2022-11-20T01:23:25;10.23;;;4.45;;
76063;SDS011;64762;52.006;8.424;2022-11-20T01:25:51;13.00;;;4.60;;
76063;SDS011;64762;52.006;8.424;2022-11-20T01:28:16;13.23;;;5.43;;
76063;SDS011;64762;52.006;8.424;2022-11-20T01:30:41;8.77;;;4.30;;
76063;SDS011;64762;52.006;8.424;2022-11-20T01:33:07;12.17;;;4.80;;
76063;SDS011;64762;52.006;8.424;2022-11-20T01:35:33;11.05;;;4.70;;
76063;SDS011;64762;52.006;8.424;2022-11-20T01:37:58;12.30;;;5.07;;
76063;SDS011;64762;52.006;8.424;2022-11-20T01:40:23;11.87;;;5.67;;
76063;SDS011;64762;52.006;8.424;2022-11-20T01:42:51;11.13;;;4.50;;
76063;SDS011;64762;52.006;8.424;2022-11-20T01:45:48;10.52;;;4.63;;
76063;SDS011;64762;52.006;8.424;2022-11-20T01:48:21;8.30;;;4.38;;
76063;SDS011;64762;52.006;8.424;2022-11-20T01:50:47;11.50;;;5.22;;
76063;SDS011;64762;52.006;8.424;2022-11-20T01:53:14;10.20;;;4.35;;
76063;SDS011;64762;52.006;8.424;2022-11-20T01:55:45;15.85;;;6.18;;
76063;SDS011;64762;52.006;8.424;2022-11-20T01:58:13;12.45;;;5.13;;
76063;SDS011;64762;52.006;8.424;2022-11-20T02:00:38;12.98;;;4.03;;
76063;SDS011;64762;52.006;8.424;2022-11-20T02:03:12;10.55;;;4.35;;
76063;SDS011;64762;52.006;8.424;2022-11-20T02:05:42;9.70;;;5.05;;
76063;SDS011;64762;52.006;8.424;2022-11-20T02:08:10;10.95;;;4.82;;
76063;SDS011;64762;52.006;8.424;2022-11-20T02:10:35;13.30;;;5.75;;
76063;SDS011;64762;52.006;8.424;2022-11-20T02:13:01;11.83;;;5.10;;
76063;SDS011;64762;52.006;8.424;2022-11-20T02:15:45;13.38;;;4.78;;
76063;SDS011;64762;52.006;8.424;2022-11-20T02:18:11;8.88;;;4.55;;
76063;SDS011;64762;52.006;8.424;2022-11-20T02:20:37;10.98;;;4.78;;
76063;SDS011;64762;52.006;8.424;2022-11-20T02:23:04;12.35;;;5.47;;
76063;SDS011;64762;52.006;8.424;2022-11-20T02:25:33;11.20;;;5.55;;
76063;SDS011;64762;52.006;8.424;2022-11-20T02:28:00;12.38;;;5.47;;
76063;SDS011;64762;52.006;8.424;2022-11-20T02:30:25;11.65;;;4.88;;
76063;SDS011;64762;52.006;8.424;2022-11-20T02:32:50;14.07;;;4.70;;
76063;SDS011;64762;52.006;8.424;2022-11-20T02:37:44;13.68;;;5.47;;
76063;SDS011;64762;52.006;8.424;2022-11-20T02:40:13;11.40;;;5.22;;
76063;SDS011;64762;52.006;8.424;2022-11-20T02:42:38;12.00;;;6.22;;
76063;SDS011;64762;52.006;8.424;2022-11-20T02:45:04;11.33;;;5.43;;
76063;SDS011;64762;52.006;8.424;2022-11-20T02:47:30;13.30;;;6.05;;
76063;SDS011;64762;52.006;8.424;2022-11-20T02:49:55;14.60;;;6.00;;
76063;SDS011;64762;52.006;8.424;2022-11-20T02:52:21;12.43;;;5.40;;
76063;SDS011;64762;52.006;8.424;2022-11-20T02:54:46;15.38;;;6.70;;
76063;SDS011;64762;52.006;8.424;2022-11-20T02:57:11;12.33;;;6.07;;
76063;SDS011;64762;52.006;8.424;2022-11-20T02:59:37;14.63;;;6.33;;
76063;SDS011;64762;52.006;8.424;2022-11-20T03:02:02;12.40;;;6.07;;
76063;SDS011;64762;52.006;8.424;2022-11-20T03:04:27;12.83;;;6.10;;
76063;SDS011;64762;52.006;8.424;2022-11-20T03:06:53;14.67;;;5.53;;
76063;SDS011;64762;52.006;8.424;2022-11-20T03:09:18;13.63;;;6.67;;
76063;SDS011;64762;52.006;8.424;2022-11-20T03:11:43;13.27;;;5.73;;
76063;SDS011;64762;52.006;8.424;2022-11-20T03:14:09;12.33;;;6.03;;
76063;SDS011;64762;52.006;8.424;2022-11-20T03:16:34;14.33;;;6.50;;
76063;SDS011;64762;52.006;8.424;2022-11-20T03:18:59;12.27;;;5.53;;
76063;SDS011;64762;52.006;8.424;2022-11-20T03:21:25;11.57;;;6.28;;
76063;SDS011;64762;52.006;8.424;2022-11-20T03:23:50;15.70;;;5.87;;
76063;SDS011;64762;52.006;8.424;2022-11-20T03:26:17;13.70;;;6.07;;
76063;SDS011;64762;52.006;8.424;2022-11-20T03:31:21;11.82;;;5.68;;
76063;SDS011;64762;52.006;8.424;2022-11-20T03:33:49;16.08;;;5.88;;
76063;SDS011;64762;52.006;8.424;2022-11-20T03:36:15;12.80;;;5.17;;
76063;SDS011;64762;52.006;8.424;2022-11-20T03:38:42;15.73;;;6.35;;
76063;SDS011;64762;52.006;8.424;2022-11-20T03:41:08;14.27;;;5.60;;
76063;SDS011;64762;52.006;8.424;2022-11-20T03:43:35;12.77;;;5.63;;
76063;SDS011;64762;52.006;8.424;2022-11-20T03:46:00;11.85;;;5.80;;
76063;SDS011;64762;52.006;8.424;2022-11-20T03:48:26;12.82;;;5.13;;
76063;SDS011;64762;52.006;8.424;2022-11-20T03:50:51;15.63;;;5.35;;
76063;SDS011;64762;52.006;8.424;2022-11-20T03:53:17;12.98;;;6.00;;
76063;SDS011;64762;52.006;8.424;2022-11-20T03:55:43;12.70;;;5.45;;
76063;SDS011;64762;52.006;8.424;2022-11-20T03:58:09;11.97;;;5.57;;
76063;SDS011;64762;52.006;8.424;2022-11-20T04:00:35;12.13;;;5.30;;
76063;SDS011;64762;52.006;8.424;2022-11-20T04:03:00;12.73;;;5.03;;
76063;SDS011;64762;52.006;8.424;2022-11-20T04:05:27;10.38;;;5.13;;
76063;SDS011;64762;52.006;8.424;2022-11-20T04:07:52;9.88;;;4.47;;
76063;SDS011;64762;52.006;8.424;2022-11-20T04:10:17;10.90;;;4.57;;
76063;SDS011;64762;52.006;8.424;2022-11-20T04:12:43;8.40;;;4.00;;
76063;SDS011;64762;52.006;8.424;2022-11-20T04:15:08;12.60;;;5.13;;
76063;SDS011;64762;52.006;8.424;2022-11-20T04:17:34;11.27;;;5.22;;
76063;SDS011;64762;52.006;8.424;2022-11-20T04:19:59;11.15;;;4.97;;
76063;SDS011;64762;52.006;8.424;2022-11-20T04:22:24;11.83;;;4.70;;
76063;SDS011;64762;52.006;8.424;2022-11-20T04:24:50;10.57;;;4.63;;
76063;SDS011;64762;52.006;8.424;2022-11-20T04:27:15;10.77;;;5.57;;
76063;SDS011;64762;52.006;8.424;2022-11-20T04:29:40;12.20;;;5.10;;
76063;SDS011;64762;52.006;8.424;2022-11-20T04:32:06;10.00;;;4.73;;
76063;SDS011;64762;52.006;8.424;2022-11-20T04:34:31;12.20;;;5.53;;
76063;SDS011;64762;52.006;8.424;2022-11-20T04:36:56;11.40;;;5.00;;
76063;SDS011;64762;52.006;8.424;2022-11-20T04:39:22;11.00;;;4.70;;
76063;SDS011;64762;52.006;8.424;2022-11-20T04:41:47;13.30;;;5.80;;
76063;SDS011;64762;52.006;8.424;2022-11-20T04:44:12;9.03;;;4.60;;
76063;SDS011;64762;52.006;8.424;2022-11-20T04:46:39;11.43;;;5.27;;
76063;SDS011;64762;52.006;8.424;2022-11-20T04:49:05;12.52;;;5.45;;
76063;SDS011;64762;52.006;8.424;2022-11-20T04:51:30;9.15;;;4.93;;
76063;SDS011;64762;52.006;8.424;2022-11-20T04:53:56;10.95;;;5.35;;
76063;SDS011;64762;52.006;8.424;2022-11-20T04:56:21;9.17;;;4.30;;
76063;SDS011;64762;52.006;8.424;2022-11-20T04:58:47;14.95;;;5.45;;
76063;SDS011;64762;52.006;8.424;2022-11-20T05:01:14;11.20;;;5.57;;
76063;SDS011;64762;52.006;8.424;2022-11-20T05:03:41;9.23;;;5.60;;
76063;SDS011;64762;52.006;8.424;2022-11-20T05:06:07;13.40;;;4.60;;
76063;SDS011;64762;52.006;8.424;2022-11-20T05:08:33;13.45;;;6.07;;
76063;SDS011;64762;52.006;8.424;2022-11-20T05:10:59;13.95;;;5.80;;
76063;SDS011;64762;52.006;8.424;2022-11-20T05:13:28;12.48;;;5.80;;
76063;SDS011;64762;52.006;8.424;2022-11-20T05:15:53;12.07;;;5.37;;
76063;SDS011;64762;52.006;8.424;2022-11-20T05:18:19;10.90;;;4.50;;
76063;SDS011;64762;52.006;8.424;2022-11-20T05:20:44;8.13;;;4.03;;
76063;SDS011;64762;52.006;8.424;2022-11-20T05:23:09;10.63;;;4.67;;
76063;SDS011;64762;52.006;8.424;2022-11-20T05:25:35;9.40;;;4.03;;
76063;SDS011;64762;52.006;8.424;2022-11-20T05:28:00;11.30;;;5.10;;
76063;SDS011;64762;52.006;8.424;2022-11-20T05:30:25;8.67;;;4.40;;
76063;SDS011;64762;52.006;8.424;2022-11-20T05:32:51;13.33;;;5.03;;
76063;SDS011;64762;52.006;8.424;2022-11-20T05:35:16;8.63;;;4.83;;
76063;SDS011;64762;52.006;8.424;2022-11-20T05:37:41;9.30;;;5.20;;
76063;SDS011;64762;52.006;8.424;2022-11-20T05:40:07;12.53;;;4.67;;
76063;SDS011;64762;52.006;8.424;2022-11-20T05:42:33;9.88;;;4.40;;
76063;SDS011;64762;52.006;8.424;2022-11-20T05:44:58;10.03;;;4.47;;
76063;SDS011;64762;52.006;8.424;2022-11-20T05:47:24;9.80;;;4.68;;
76063;SDS011;64762;52.006;8.424;2022-11-20T05:49:50;10.10;;;4.68;;
76063;SDS011;64762;52.006;8.424;2022-11-20T05:52:16;10.90;;;4.80;;
76063;SDS011;64762;52.006;8.424;2022-11-20T05:54:41;9.33;;;3.97;;
76063;SDS011;64762;52.006;8.424;2022-11-20T05:57:06;9.80;;;4.47;;
76063;SDS011;64762;52.006;8.424;2022-11-20T05:59:32;8.30;;;4.13;;
76063;SDS011;64762;52.006;8.424;2022-11-20T06:01:57;7.63;;;4.07;;
76063;SDS011;64762;52.006;8.424;2022-11-20T06:04:22;8.55;;;3.97;;
76063;SDS011;64762;52.006;8.424;2022-11-20T06:06:49;9.63;;;4.03;;
76063;SDS011;64762;52.006;8.424;2022-11-20T06:09:14;9.90;;;4.80;;
76063;SDS011;64762;52.006;8.424;2022-11-20T06:11:39;10.43;;;4.43;;
76063;SDS011;64762;52.006;8.424;2022-11-20T06:14:05;9.82;;;4.35;;
76063;SDS011;64762;52.006;8.424;2022-11-20T06:16:30;9.25;;;4.55;;
76063;SDS011;64762;52.006;8.424;2022-11-20T06:18:56;11.17;;;5.50;;
76063;SDS011;64762;52.006;8.424;2022-11-20T06:21:21;9.10;;;4.13;;
76063;SDS011;64762;52.006;8.424;2022-11-20T06:23:48;6.93;;;3.28;;
76063;SDS011;64762;52.006;8.424;2022-11-20T06:26:18;7.45;;;3.42;;
76063;SDS011;64762;52.006;8.424;2022-11-20T06:28:45;17.50;;;7.43;;
76063;SDS011;64762;52.006;8.424;2022-11-20T06:31:12;13.43;;;5.35;;
76063;SDS011;64762;52.006;8.424;2022-11-20T06:33:38;10.57;;;4.85;;
76063;SDS011;64762;52.006;8.424;2022-11-20T06:36:04;9.75;;;4.47;;
76063;SDS011;64762;52.006;8.424;2022-11-20T06:38:30;9.48;;;4.47;;
76063;SDS011;64762;52.006;8.424;2022-11-20T06:40:55;9.85;;;4.57;;
76063;SDS011;64762;52.006;8.424;2022-11-20T06:43:21;8.82;;;3.88;;
76063;SDS011;64762;52.006;8.424;2022-11-20T06:45:51;7.78;;;3.67;;
76063;SDS011;64762;52.006;8.424;2022-11-20T06:48:17;13.13;;;5.07;;
76063;SDS011;64762;52.006;8.424;2022-11-20T06:50:42;10.63;;;4.30;;
76063;SDS011;64762;52.006;8.424;2022-11-20T06:53:07;12.53;;;6.10;;
76063;SDS011;64762;52.006;8.424;2022-11-20T06:55:32;10.40;;;4.90;;
76063;SDS011;64762;52.006;8.424;2022-11-20T06:57:58;13.97;;;5.23;;
76063;SDS011;64762;52.006;8.424;2022-11-20T07:00:23;11.80;;;5.60;;
76063;SDS011;64762;52.006;8.424;2022-11-20T07:02:49;10.70;;;4.00;;
76063;SDS011;64762;52.006;8.424;2022-11-20T07:05:14;8.03;;;3.80;;
76063;SDS011;64762;52.006;8.424;2022-11-20T07:07:40;10.00;;;3.65;;
76063;SDS011;64762;52.006;8.424;2022-11-20T07:10:05;9.50;;;4.03;;
76063;SDS011;64762;52.006;8.424;2022-11-20T07:12:31;7.75;;;4.10;;
76063;SDS011;64762;52.006;8.424;2022-11-20T07:14:58;12.35;;;5.53;;
76063;SDS011;64762;52.006;8.424;2022-11-20T07:17:23;11.40;;;5.00;;
76063;SDS011;64762;52.006;8.424;2022-11-20T07:19:48;9.88;;;4.82;;
76063;SDS011;64762;52.006;8.424;2022-11-20T07:22:14;11.47;;;5.20;;
76063;SDS011;64762;52.006;8.424;2022-11-20T07:24:39;14.47;;;5.93;;
76063;SDS011;64762;52.006;8.424;2022-11-20T07:27:05;12.37;;;4.83;;
76063;SDS011;64762;52.006;8.424;2022-11-20T07:29:30;10.00;;;5.65;;
76063;SDS011;64762;52.006;8.424;2022-11-20T07:31:56;10.20;;;5.55;;
76063;SDS011;64762;52.006;8.424;2022-11-20T07:34:21;11.63;;;5.28;;
76063;SDS011;64762;52.006;8.424;2022-11-20T07:36:46;13.48;;;6.72;;
76063;SDS011;64762;52.006;8.424;2022-11-20T07:39:12;12.37;;;5.43;;
76063;SDS011;64762;52.006;8.424;2022-11-20T07:41:37;10.67;;;5.97;;
76063;SDS011;64762;52.006;8.424;2022-11-20T07:44:02;11.87;;;5.43;;
76063;SDS011;64762;52.006;8.424;2022-11-20T07:46:28;12.02;;;6.10;;
76063;SDS011;64762;52.006;8.424;2022-11-20T07:48:53;11.47;;;6.13;;
76063;SDS011;64762;52.006;8.424;2022-11-20T07:51:19;14.27;;;5.77;;
76063;SDS011;64762;52.006;8.424;2022-11-20T07:53:44;12.57;;;5.60;;
76063;SDS011;64762;52.006;8.424;2022-11-20T07:56:09;18.87;;;6.47;;
76063;SDS011;64762;52.006;8.424;2022-11-20T07:58:35;12.88;;;6.38;;
76063;SDS011;64762;52.006;8.424;2022-11-20T08:01:07;12.48;;;5.25;;
76063;SDS011;64762;52.006;8.424;2022-11-20T08:03:32;13.52;;;6.25;;
76063;SDS011;64762;52.006;8.424;2022-11-20T08:06:01;15.30;;;5.90;;
76063;SDS011;64762;52.006;8.424;2022-11-20T08:08:27;14.85;;;6.55;;
76063;SDS011;64762;52.006;8.424;2022-11-20T08:10:53;14.95;;;6.75;;
76063;SDS011;64762;52.006;8.424;2022-11-20T08:13:38;16.45;;;6.80;;
76063;SDS011;64762;52.006;8.424;2022-11-20T08:16:22;13.15;;;5.85;;
76063;SDS011;64762;52.006;8.424;2022-11-20T08:18:47;16.47;;;6.03;;
76063;SDS011;64762;52.006;8.424;2022-11-20T08:21:12;14.20;;;5.60;;
76063;SDS011;64762;52.006;8.424;2022-11-20T08:23:38;16.10;;;6.27;;
76063;SDS011;64762;52.006;8.424;2022-11-20T08:26:03;12.13;;;5.20;;
76063;SDS011;64762;52.006;8.424;2022-11-20T08:28:29;13.23;;;5.57;;
76063;SDS011;64762;52.006;8.424;2022-11-20T08:30:58;13.67;;;6.17;;
76063;SDS011;64762;52.006;8.424;2022-11-20T08:33:24;12.85;;;4.90;;
76063;SDS011;64762;52.006;8.424;2022-11-20T08:35:50;14.37;;;5.90;;
76063;SDS011;64762;52.006;8.424;2022-11-20T08:38:16;13.40;;;5.18;;
76063;SDS011;64762;52.006;8.424;2022-11-20T08:40:41;14.00;;;5.73;;
76063;SDS011;64762;52.006;8.424;2022-11-20T08:43:26;10.90;;;5.18;;
76063;SDS011;64762;52.006;8.424;2022-11-20T08:45:52;20.33;;;6.60;;
76063;SDS011;64762;52.006;8.424;2022-11-20T08:48:17;14.40;;;6.90;;
76063;SDS011;64762;52.006;8.424;2022-11-20T08:50:42;13.00;;;5.20;;
76063;SDS011;64762;52.006;8.424;2022-11-20T08:53:08;12.53;;;4.97;;
76063;SDS011;64762;52.006;8.424;2022-11-20T08:55:33;14.50;;;5.55;;
76063;SDS011;64762;52.006;8.424;2022-11-20T08:58:03;14.63;;;7.30;;
76063;SDS011;64762;52.006;8.424;2022-11-20T09:00:29;16.13;;;5.88;;
76063;SDS011;64762;52.006;8.424;2022-11-20T09:02:54;14.27;;;6.10;;
76063;SDS011;64762;52.006;8.424;2022-11-20T09:05:20;12.27;;;6.30;;
76063;SDS011;64762;52.006;8.424;2022-11-20T09:07:45;13.47;;;6.33;;
76063;SDS011;64762;52.006;8.424;2022-11-20T09:10:10;12.52;;;5.18;;
76063;SDS011;64762;52.006;8.424;2022-11-20T09:12:36;12.98;;;5.22;;
76063;SDS011;64762;52.006;8.424;2022-11-20T09:15:01;13.83;;;6.00;;
76063;SDS011;64762;52.006;8.424;2022-11-20T09:17:26;10.67;;;5.60;;
76063;SDS011;64762;52.006;8.424;2022-11-20T09:19:52;11.23;;;5.13;;
76063;SDS011;64762;52.006;8.424;2022-11-20T09:22:17;14.00;;;6.18;;
76063;SDS011;64762;52.006;8.424;2022-11-20T09:24:43;14.00;;;5.87;;
76063;SDS011;64762;52.006;8.424;2022-11-20T09:27:08;15.37;;;6.43;;
76063;SDS011;64762;52.006;8.424;2022-11-20T09:29:33;10.23;;;4.63;;
76063;SDS011;64762;52.006;8.424;2022-11-20T09:31:59;12.93;;;5.70;;
76063;SDS011;64762;52.006;8.424;2022-11-20T09:34:24;10.90;;;4.23;;
76063;SDS011;64762;52.006;8.424;2022-11-20T09:36:49;11.43;;;5.57;;
76063;SDS011;64762;52.006;8.424;2022-11-20T09:39:15;9.63;;;5.13;;
76063;SDS011;64762;52.006;8.424;2022-11-20T09:41:45;13.73;;;5.50;;
76063;SDS011;64762;52.006;8.424;2022-11-20T09:44:38;13.45;;;5.63;;
76063;SDS011;64762;52.006;8.424;2022-11-20T09:47:11;12.88;;;5.10;;
76063;SDS011;64762;52.006;8.424;2022-11-20T09:53:04;12.82;;;5.47;;
76063;SDS011;64762;52.006;8.424;2022-11-20T09:55:36;12.05;;;5.32;;
76063;SDS011;64762;52.006;8.424;2022-11-20T09:58:02;12.45;;;5.97;;
76063;SDS011;64762;52.006;8.424;2022-11-20T10:00:31;12.70;;;6.13;;
76063;SDS011;64762;52.006;8.424;2022-11-20T10:05:35;11.13;;;5.47;;
76063;SDS011;64762;52.006;8.424;2022-11-20T10:08:16;12.98;;;5.93;;
76063;SDS011;64762;52.006;8.424;2022-11-20T10:10:46;11.65;;;4.90;;
76063;SDS011;64762;52.006;8.424;2022-11-20T10:15:47;11.27;;;5.60;;
76063;SDS011;64762;52.006;8.424;2022-11-20T10:26:39;11.27;;;5.47;;
76063;SDS011;64762;52.006;8.424;2022-11-20T10:32:11;12.50;;;5.45;;
76063;SDS011;64762;52.006;8.424;2022-11-20T10:34:30;10.27;;;5.05;;
76063;SDS011;64762;52.006;8.424;2022-11-20T10:39:30;13.10;;;6.13;;
76063;SDS011;64762;52.006;8.424;2022-11-20T10:41:59;11.90;;;5.97;;
76063;SDS011;64762;52.006;8.424;2022-11-20T10:44:28;12.63;;;6.20;;
76063;SDS011;64762;52.006;8.424;2022-11-20T10:47:14;14.52;;;6.22;;
76063;SDS011;64762;52.006;8.424;2022-11-20T10:49:40;15.18;;;6.82;;
76063;SDS011;64762;52.006;8.424;2022-11-20T10:52:17;16.00;;;6.72;;
76063;SDS011;64762;52.006;8.424;2022-11-20T10:54:58;13.82;;;6.60;;
76063;SDS011;64762;52.006;8.424;2022-11-20T10:57:40;17.23;;;6.50;;
76063;SDS011;64762;52.006;8.424;2022-11-20T11:00:16;15.63;;;6.70;;
76063;SDS011;64762;52.006;8.424;2022-11-20T11:02:52;14.65;;;6.38;;
76063;SDS011;64762;52.006;8.424;2022-11-20T11:05:22;13.52;;;6.30;;
76063;SDS011;64762;52.006;8.424;2022-11-20T11:07:53;14.93;;;6.80;;
76063;SDS011;64762;52.006;8.424;2022-11-20T11:12:57;16.35;;;6.30;;
76063;SDS011;64762;52.006;8.424;2022-11-20T11:15:27;13.13;;;6.97;;
76063;SDS011;64762;52.006;8.424;2022-11-20T11:17:54;13.02;;;6.60;;
76063;SDS011;64762;52.006;8.424;2022-11-20T11:20:21;14.73;;;6.45;;
76063;SDS011;64762;52.006;8.424;2022-11-20T11:25:22;16.23;;;6.85;;
76063;SDS011;64762;52.006;8.424;2022-11-20T11:27:55;14.90;;;6.93;;
76063;SDS011;64762;52.006;8.424;2022-11-20T11:30:23;13.48;;;6.55;;
76063;SDS011;64762;52.006;8.424;2022-11-20T11:32:49;12.63;;;6.45;;
76063;SDS011;64762;52.006;8.424;2022-11-20T11:35:24;12.70;;;6.50;;
76063;SDS011;64762;52.006;8.424;2022-11-20T11:37:51;14.13;;;6.30;;
76063;SDS011;64762;52.006;8.424;2022-11-20T11:40:19;11.40;;;5.75;;
76063;SDS011;64762;52.006;8.424;2022-11-20T11:42:46;9.68;;;5.70;;
76063;SDS011;64762;52.006;8.424;2022-11-20T11:45:17;12.63;;;7.10;;
76063;SDS011;64762;52.006;8.424;2022-11-20T11:55:35;13.32;;;6.65;;
76063;SDS011;64762;52.006;8.424;2022-11-20T12:03:50;13.48;;;6.10;;
76063;SDS011;64762;52.006;8.424;2022-11-20T12:06:20;18.90;;;9.20;;
76063;SDS011;64762;52.006;8.424;2022-11-20T12:08:53;13.40;;;7.40;;
76063;SDS011;64762;52.006;8.424;2022-11-20T12:16:37;15.60;;;7.03;;
76063;SDS011;64762;52.006;8.424;2022-11-20T12:19:07;12.60;;;6.32;;
76063;SDS011;64762;52.006;8.424;2022-11-20T12:27:24;13.30;;;5.90;;
76063;SDS011;64762;52.006;8.424;2022-11-20T12:30:03;12.02;;;5.68;;
76063;SDS011;64762;52.006;8.424;2022-11-20T12:35:21;10.75;;;5.32;;
76063;SDS011;64762;52.006;8.424;2022-11-20T12:41:03;13.38;;;6.25;;
76063;SDS011;64762;52.006;8.424;2022-11-20T12:43:50;12.38;;;5.95;;
76063;SDS011;64762;52.006;8.424;2022-11-20T12:47:22;13.05;;;5.97;;
76063;SDS011;64762;52.006;8.424;2022-11-20T12:49:58;14.57;;;6.95;;
76063;SDS011;64762;52.006;8.424;2022-11-20T12:52:51;19.48;;;7.68;;
76063;SDS011;64762;52.006;8.424;2022-11-20T13:00:38;15.35;;;7.13;;
76063;SDS011;64762;52.006;8.424;2022-11-20T13:06:15;12.90;;;6.35;;
76063;SDS011;64762;52.006;8.424;2022-11-20T13:08:48;12.00;;;5.45;;
76063;SDS011;64762;52.006;8.424;2022-11-20T13:14:42;13.07;;;5.93;;
76063;SDS011;64762;52.006;8.424;2022-11-20T13:17:14;12.57;;;5.90;;
76063;SDS011;64762;52.006;8.424;2022-11-20T13:19:47;12.27;;;6.28;;
76063;SDS011;64762;52.006;8.424;2022-11-20T13:22:24;9.35;;;5.45;;
76063;SDS011;64762;52.006;8.424;2022-11-20T13:25:10;11.00;;;5.53;;
76063;SDS011;64762;52.006;8.424;2022-11-20T13:27:55;12.35;;;5.95;;
76063;SDS011;64762;52.006;8.424;2022-11-20T13:30:22;14.13;;;6.57;;
76063;SDS011;64762;52.006;8.424;2022-11-20T13:35:35;15.70;;;6.78;;
76063;SDS011;64762;52.006;8.424;2022-11-20T13:40:26;13.88;;;7.15;;
76063;SDS011;64762;52.006;8.424;2022-11-20T13:43:00;14.98;;;7.70;;
76063;SDS011;64762;52.006;8.424;2022-11-20T13:45:33;16.60;;;7.28;;
76063;SDS011;64762;52.006;8.424;2022-11-20T13:48:15;14.90;;;7.23;;
76063;SDS011;64762;52.006;8.424;2022-11-20T13:50:51;15.98;;;6.95;;
76063;SDS011;64762;52.006;8.424;2022-11-20T13:59:02;14.38;;;7.30;;
76063;SDS011;64762;52.006;8.424;2022-11-20T14:01:32;13.90;;;7.13;;
76063;SDS011;64762;52.006;8.424;2022-11-20T14:03:58;13.80;;;6.88;;
76063;SDS011;64762;52.006;8.424;2022-11-20T14:06:31;15.50;;;7.68;;
76063;SDS011;64762;52.006;8.424;2022-11-20T14:08:58;12.52;;;6.35;;
76063;SDS011;64762;52.006;8.424;2022-11-20T14:11:25;15.73;;;7.10;;
76063;SDS011;64762;52.006;8.424;2022-11-20T14:13:52;14.73;;;7.28;;
76063;SDS011;64762;52.006;8.424;2022-11-20T14:16:20;15.57;;;6.57;;
76063;SDS011;64762;52.006;8.424;2022-11-20T14:18:46;15.60;;;6.95;;
76063;SDS011;64762;52.006;8.424;2022-11-20T14:21:20;17.80;;;7.88;;
76063;SDS011;64762;52.006;8.424;2022-11-20T14:23:52;14.43;;;6.95;;
76063;SDS011;64762;52.006;8.424;2022-11-20T14:26:18;15.27;;;6.85;;
76063;SDS011;64762;52.006;8.424;2022-11-20T14:28:49;15.23;;;6.88;;
76063;SDS011;64762;52.006;8.424;2022-11-20T14:31:25;13.57;;;6.95;;
76063;SDS011;64762;52.006;8.424;2022-11-20T14:33:52;17.13;;;7.47;;
76063;SDS011;64762;52.006;8.424;2022-11-20T14:36:19;17.10;;;6.90;;
76063;SDS011;64762;52.006;8.424;2022-11-20T14:38:46;16.42;;;7.40;;
76063;SDS011;64762;52.006;8.424;2022-11-20T14:41:19;17.60;;;7.72;;
76063;SDS011;64762;52.006;8.424;2022-11-20T14:43:46;17.25;;;7.00;;
76063;SDS011;64762;52.006;8.424;2022-11-20T14:46:18;17.33;;;8.10;;
76063;SDS011;64762;52.006;8.424;2022-11-20T14:48:47;18.20;;;7.90;;
76063;SDS011;64762;52.006;8.424;2022-11-20T14:54:16;14.88;;;7.25;;
76063;SDS011;64762;52.006;8.424;2022-11-20T14:56:53;16.75;;;7.78;;
76063;SDS011;64762;52.006;8.424;2022-11-20T14:59:23;17.90;;;8.05;;
76063;SDS011;64762;52.006;8.424;2022-11-20T15:02:02;19.05;;;8.82;;
76063;SDS011;64762;52.006;8.424;2022-11-20T15:04:29;20.10;;;8.55;;
76063;SDS011;64762;52.006;8.424;2022-11-20T15:06:56;15.48;;;8.15;;
76063;SDS011;64762;52.006;8.424;2022-11-20T15:09:24;18.15;;;8.60;;
76063;SDS011;64762;52.006;8.424;2022-11-20T15:14:17;15.63;;;7.32;;
76063;SDS011;64762;52.006;8.424;2022-11-20T15:16:43;18.97;;;8.83;;
76063;SDS011;64762;52.006;8.424;2022-11-20T15:19:18;18.50;;;8.67;;
76063;SDS011;64762;52.006;8.424;2022-11-20T15:21:45;26.90;;;11.35;;
76063;SDS011;64762;52.006;8.424;2022-11-20T15:24:11;18.02;;;8.13;;
76063;SDS011;64762;52.006;8.424;2022-11-20T15:26:36;18.67;;;8.27;;
76063;SDS011;64762;52.006;8.424;2022-11-20T15:29:04;18.23;;;9.02;;
76063;SDS011;64762;52.006;8.424;2022-11-20T15:31:29;18.10;;;8.47;;
76063;SDS011;64762;52.006;8.424;2022-11-20T15:33:54;16.97;;;8.20;;
76063;SDS011;64762;52.006;8.424;2022-11-20T15:36:20;20.83;;;9.57;;
76063;SDS011;64762;52.006;8.424;2022-11-20T15:38:45;17.73;;;8.97;;
76063;SDS011;64762;52.006;8.424;2022-11-20T15:41:10;22.20;;;9.57;;
76063;SDS011;64762;52.006;8.424;2022-11-20T15:43:36;24.90;;;10.70;;
76063;SDS011;64762;52.006;8.424;2022-11-20T15:46:05;20.70;;;10.23;;
76063;SDS011;64762;52.006;8.424;2022-11-20T15:48:35;31.30;;;11.90;;
76063;SDS011;64762;52.006;8.424;2022-11-20T15:51:05;24.60;;;10.15;;
76063;SDS011;64762;52.006;8.424;2022-11-20T15:53:40;24.35;;;10.55;;
76063;SDS011;64762;52.006;8.424;2022-11-20T15:56:07;26.30;;;10.95;;
76063;SDS011;64762;52.006;8.424;2022-11-20T15:58:35;21.83;;;10.27;;
76063;SDS011;64762;52.006;8.424;2022-11-20T16:01:01;18.70;;;10.00;;
76063;SDS011;64762;52.006;8.424;2022-11-20T16:03:26;21.90;;;9.40;;
76063;SDS011;64762;52.006;8.424;2022-11-20T16:05:52;21.48;;;9.80;;
76063;SDS011;64762;52.006;8.424;2022-11-20T16:08:17;20.10;;;9.52;;
76063;SDS011;64762;52.006;8.424;2022-11-20T16:10:43;17.10;;;7.85;;
76063;SDS011;64762;52.006;8.424;2022-11-20T16:13:12;21.57;;;10.53;;
76063;SDS011;64762;52.006;8.424;2022-11-20T16:15:58;19.85;;;9.63;;